KCOS/COS METAR and TAF weather

Enter ICAO airport designator
Station Type Date Time Source
KCOS METAR 2019/12/08 18:54 UTC NOAA

KCOS 081854Z 04003KT 10SM FEW070 BKN150 BKN180 11/M05 A2975 RMK AO2 SLP042 T01111050 $


Station Type Date Time Source
KCOS Decoded METAR 2019/12/08 18:54 UTC NOAA

COLORADO SPRINGS MUNI, CO, United States (KCOS) 38-49N 104-43W 1856M
Dec 08, 2019 - 01:54 PM EST / 2019.12.08 1854 UTC
Wind: from the NE (040 degrees) at 3 MPH (3 KT):0
Visibility: 10 mile(s):0
Sky conditions: mostly cloudy
Temperature: 52.0 F (11.1 C)
Dew Point: 23.0 F (-5.0 C)
Relative Humidity: 31%
Pressure (altimeter): 29.75 in. Hg (1007 hPa)
ob: KCOS 081854Z 04003KT 10SM FEW070 BKN150 BKN180 11/M05 A2975 RMK AO2 SLP042 T01111050
cycle: 19

Station Type Date Time Source
KCOS TAF 2019/12/08 18:30 UTC NOAA

TAF KCOS 081728Z 0818/0918 17007KT P6SM FEW070 OVC200
FM082100 19010KT P6SM BKN200
FM090000 30008KT P6SM BKN150
FM090500 34015KT P6SM SCT080 BKN150
FM090800 35010KT P6SM FEW060
FM091700 09006KT P6SM BKN050

Example: see airport list